Search for airport 
image banner adimage banner adimage banner ad
image banner ad

0L7 - Jean

Located in Jean, United States

ICAO - 0L7, IATA -

Data provided by Airmate  

General information

Coordinates: N35°46'6" W115°19'47"
Elevation is 2835 feet MSL.
Magnetic variation is 14° East
View others Airports in Nevada

Operational data

Special qualification required
Current time UTC:
Current local time:
Weather at : KHND - Henderson Executive ( 29 km )
METAR: KHND 130056Z 03007KT 10SM CLR 38/M08 A2981 RMK AO2 SLP079 T03831083
TAF: KHND 122320Z 1300/1324 15010KT P6SM SKC FM130400 19010KT P6SM SKC FM131200 VRB05KT P6SM FEW250 FM132100 20015G25KT P6SM FEW250
View NOTAMs / SUP AIP / TFR affecting this airport [VIEW]
Communications frequencies: [VIEW]

Runways:

RWY identifierQFULength (ft)Width (ft)SurfaceLDA (ft)
02L32°460075ASPH
20R212°460075ASPH
02R32°370060ASPH
20L212°370060ASPH

Airport contact information

Address: Jean United States

Satellite view of 0L7